createdAt,value
2022-08-23T00:01:31.147Z,93.04
2022-08-23T00:04:02.108Z,93.29
2022-08-23T00:06:29.944Z,94.23
2022-08-23T00:08:57.619Z,94.78
2022-08-23T00:11:31.472Z,94.33
2022-08-23T00:14:01.122Z,94.40
2022-08-23T00:16:28.533Z,95.50
2022-08-23T00:18:55.842Z,95.42
2022-08-23T00:21:23.621Z,95.07
2022-08-23T00:23:51.354Z,94.86
2022-08-23T00:26:20.867Z,94.92
2022-08-23T00:28:49.966Z,95.96
2022-08-23T00:31:18.844Z,95.77
2022-08-23T00:33:46.157Z,96.01
2022-08-23T00:36:13.205Z,95.57
2022-08-23T00:38:40.598Z,95.84
2022-08-23T00:41:07.910Z,95.90
2022-08-23T00:43:59.852Z,95.89
2022-08-23T00:47:25.177Z,95.94
2022-08-23T00:50:19.253Z,95.68
2022-08-23T00:53:06.298Z,95.62
2022-08-23T00:55:34.830Z,95.86
2022-08-23T00:58:02.435Z,96.49
2022-08-23T01:00:30.607Z,96.09
2022-08-23T01:02:58.392Z,96.02
2022-08-23T01:05:35.109Z,95.83
2022-08-23T01:08:02.493Z,95.76
2022-08-23T01:10:50.790Z,96.04
2022-08-23T01:13:27.340Z,96.00
2022-08-23T01:16:01.580Z,95.93
2022-08-23T01:18:30.515Z,96.05
2022-08-23T01:21:08.013Z,96.45
2022-08-23T01:23:43.932Z,96.29
2022-08-23T01:26:12.564Z,97.14
2022-08-23T01:28:41.196Z,96.78
2022-08-23T01:31:15.172Z,97.46
2022-08-23T01:33:43.303Z,97.57
2022-08-23T01:36:14.921Z,97.66
2022-08-23T01:38:41.990Z,97.99
2022-08-23T01:41:09.712Z,98.29
2022-08-23T01:43:37.241Z,98.81
2022-08-23T01:46:13.685Z,98.22
2022-08-23T01:48:41.112Z,97.92
2022-08-23T01:51:08.406Z,98.13
2022-08-23T01:53:36.740Z,97.74
2022-08-23T01:56:05.660Z,97.76
2022-08-23T01:58:33.888Z,98.10
2022-08-23T02:01:02.233Z,98.01
2022-08-23T02:03:29.530Z,98.24
2022-08-23T02:05:57.678Z,97.78
2022-08-23T02:08:43.695Z,97.54
2022-08-23T02:11:13.909Z,97.47
2022-08-23T02:13:41.595Z,97.85
2022-08-23T02:16:09.294Z,98.05
2022-08-23T02:18:42.094Z,98.05
2022-08-23T02:21:10.480Z,97.63
2022-08-23T02:23:37.686Z,97.16
2022-08-23T02:26:05.101Z,97.05
2022-08-23T02:28:32.495Z,97.49
2022-08-23T02:30:59.499Z,98.12
2022-08-23T02:33:26.677Z,97.86
2022-08-23T02:35:54.152Z,97.48
2022-08-23T02:38:21.506Z,97.33
2022-08-23T02:41:00.983Z,97.26
2022-08-23T02:43:29.699Z,97.20
2022-08-23T02:45:56.824Z,97.28
2022-08-23T02:48:24.034Z,96.73
2022-08-23T02:50:53.462Z,96.71
2022-08-23T02:53:20.502Z,96.57
2022-08-23T02:55:48.700Z,96.14
2022-08-23T02:58:15.749Z,96.16
2022-08-23T03:00:47.418Z,95.93
2022-08-23T03:03:14.367Z,96.14
2022-08-23T03:05:41.378Z,96.46
2022-08-23T03:08:08.580Z,96.36
2022-08-23T03:10:35.467Z,96.00
2022-08-23T03:13:03.014Z,95.53
2022-08-23T03:15:30.292Z,95.62
2022-08-23T03:17:57.322Z,95.46
2022-08-23T03:20:24.531Z,95.59
2022-08-23T03:22:54.915Z,95.14
2022-08-23T03:25:22.451Z,95.25
2022-08-23T03:27:49.510Z,94.23
2022-08-23T03:30:19.339Z,94.09
2022-08-23T03:32:48.984Z,93.88
2022-08-23T03:35:16.804Z,93.29
2022-08-23T03:37:43.746Z,93.59
2022-08-23T03:40:11.325Z,93.67
2022-08-23T03:42:38.318Z,93.56
2022-08-23T03:45:05.755Z,93.70
2022-08-23T03:47:32.693Z,93.98
2022-08-23T03:49:59.716Z,93.87
2022-08-23T03:52:26.664Z,93.46
2022-08-23T03:54:53.739Z,93.73
2022-08-23T03:57:20.850Z,93.46
2022-08-23T03:59:49.136Z,93.50
2022-08-23T04:02:16.722Z,93.44
2022-08-23T04:04:43.833Z,93.65
2022-08-23T04:07:10.791Z,93.46
2022-08-23T04:09:37.745Z,93.05
2022-08-23T04:12:05.144Z,93.20
2022-08-23T04:14:45.881Z,93.22
2022-08-23T04:17:13.701Z,93.11
2022-08-23T04:19:40.947Z,93.43
2022-08-23T04:22:17.037Z,93.40
2022-08-23T04:24:45.016Z,92.99
2022-08-23T04:27:13.336Z,93.11
2022-08-23T04:29:40.895Z,93.14
2022-08-23T04:32:11.470Z,92.78
2022-08-23T04:34:40.438Z,93.03
2022-08-23T04:37:09.350Z,93.16
2022-08-23T04:40:02.188Z,92.74
2022-08-23T04:42:30.191Z,92.59
2022-08-23T04:44:57.921Z,92.61
2022-08-23T04:47:25.085Z,93.04
2022-08-23T04:49:52.182Z,92.97
2022-08-23T04:52:19.793Z,93.33
2022-08-23T04:54:47.208Z,93.13
2022-08-23T04:57:15.746Z,93.52
2022-08-23T04:59:43.582Z,92.93
2022-08-23T05:02:10.731Z,93.25
2022-08-23T05:04:37.735Z,92.84
2022-08-23T05:07:04.761Z,92.99
2022-08-23T05:09:31.772Z,92.80
2022-08-23T05:11:58.860Z,92.99
2022-08-23T05:14:25.913Z,92.78
2022-08-23T05:16:53.009Z,93.24
2022-08-23T05:19:19.948Z,93.10
2022-08-23T05:21:47.006Z,93.07
2022-08-23T05:24:14.188Z,92.68
2022-08-23T05:26:44.356Z,92.95
2022-08-23T05:29:11.408Z,93.61
2022-08-23T05:31:38.297Z,93.81
2022-08-23T05:34:05.381Z,93.07
2022-08-23T05:36:48.911Z,93.26
2022-08-23T05:39:32.802Z,93.56
2022-08-23T05:42:04.676Z,93.97
2022-08-23T05:44:34.478Z,94.15
2022-08-23T05:47:10.173Z,95.08
2022-08-23T05:49:38.383Z,95.56
2022-08-23T05:52:07.083Z,95.43
2022-08-23T05:54:34.783Z,95.60
2022-08-23T05:57:02.424Z,95.80
2022-08-23T05:59:29.447Z,95.96
2022-08-23T06:01:57.307Z,95.85
2022-08-23T06:04:24.170Z,96.50
2022-08-23T06:06:51.084Z,96.97
2022-08-23T06:09:18.718Z,96.78
2022-08-23T06:11:47.146Z,97.51
2022-08-23T06:14:14.775Z,97.36
2022-08-23T06:16:45.954Z,97.44
2022-08-23T06:19:13.968Z,97.14
2022-08-23T06:21:41.941Z,96.94
2022-08-23T06:24:09.084Z,96.75
2022-08-23T06:26:42.582Z,96.85
2022-08-23T06:29:12.385Z,97.23
2022-08-23T06:31:45.603Z,96.98
2022-08-23T06:34:34.673Z,96.50
2022-08-23T06:37:12.356Z,95.97
2022-08-23T06:39:39.617Z,95.94
2022-08-23T06:42:34.531Z,96.00
2022-08-23T06:44:55.682Z,95.89
2022-08-23T06:47:23.083Z,95.56
2022-08-23T06:49:57.371Z,95.34
2022-08-23T06:52:24.904Z,95.63
2022-08-23T06:54:53.280Z,96.20
2022-08-23T06:57:20.775Z,96.35
2022-08-23T06:59:50.140Z,96.21
2022-08-23T07:02:17.428Z,95.82
2022-08-23T07:04:44.539Z,95.22
2022-08-23T07:07:12.430Z,95.30
2022-08-23T07:09:40.874Z,95.03
2022-08-23T07:12:08.159Z,94.38
2022-08-23T07:14:35.302Z,94.47
2022-08-23T07:17:03.872Z,94.48
2022-08-23T07:19:34.618Z,94.03
2022-08-23T07:22:03.874Z,93.48
2022-08-23T07:24:33.479Z,93.44
2022-08-23T07:27:01.657Z,92.73
2022-08-23T07:29:30.119Z,92.08
2022-08-23T07:31:58.166Z,92.28
2022-08-23T07:34:26.508Z,92.17
2022-08-23T07:36:54.575Z,91.87
2022-08-23T07:39:23.261Z,91.47
2022-08-23T07:41:50.202Z,90.91
2022-08-23T07:44:18.505Z,91.03
2022-08-23T07:46:48.823Z,90.66
2022-08-23T07:49:16.346Z,90.14
2022-08-23T07:51:47.412Z,89.21
2022-08-23T07:54:15.001Z,89.22
2022-08-23T07:56:42.390Z,87.97
2022-08-23T07:59:10.299Z,85.81
2022-08-23T08:01:38.425Z,85.65
2022-08-23T08:04:06.559Z,85.33
2022-08-23T08:06:43.384Z,84.81
2022-08-23T08:09:11.416Z,85.03
2022-08-23T08:11:41.544Z,84.48
2022-08-23T08:14:09.688Z,84.29
2022-08-23T08:16:44.517Z,84.26
2022-08-23T08:19:15.015Z,85.78
2022-08-23T08:21:45.814Z,85.64
2022-08-23T08:24:14.600Z,84.57
2022-08-23T08:26:43.256Z,84.05
2022-08-23T08:29:13.417Z,83.81
2022-08-23T08:31:42.762Z,84.01
2022-08-23T08:34:13.918Z,83.84
2022-08-23T08:36:45.786Z,83.07
2022-08-23T08:39:16.715Z,82.36
2022-08-23T08:42:07.905Z,80.26
2022-08-23T08:45:06.740Z,80.26
2022-08-23T08:47:49.456Z,80.06
2022-08-23T08:50:37.761Z,80.74
2022-08-23T08:53:13.723Z,80.56
2022-08-23T08:55:49.421Z,80.55
2022-08-23T08:58:30.896Z,79.60
2022-08-23T09:00:58.989Z,80.11
2022-08-23T09:03:32.192Z,80.40
2022-08-23T09:06:14.776Z,80.39
2022-08-23T09:08:49.877Z,80.29
2022-08-23T09:11:51.070Z,80.00
2022-08-23T09:15:03.021Z,79.62
2022-08-23T09:17:56.979Z,80.38
2022-08-23T09:20:32.972Z,80.00
2022-08-23T09:23:35.628Z,79.54
2022-08-23T09:26:05.964Z,79.10
2022-08-23T09:28:36.589Z,78.01
2022-08-23T09:31:04.646Z,77.54
2022-08-23T09:33:41.859Z,77.96
2022-08-23T09:36:14.825Z,78.53
2022-08-23T09:39:30.840Z,78.42
2022-08-23T09:41:58.285Z,78.08
2022-08-23T09:44:41.387Z,77.88
2022-08-23T09:47:15.490Z,76.22
2022-08-23T09:49:48.585Z,75.85
2022-08-23T09:52:34.701Z,75.97
2022-08-23T09:55:26.994Z,76.03
2022-08-23T09:57:53.932Z,75.59
2022-08-23T10:00:31.213Z,75.32
2022-08-23T10:03:26.297Z,75.59
2022-08-23T10:05:59.559Z,75.33
2022-08-23T10:08:33.809Z,75.80
2022-08-23T10:11:06.673Z,75.52
2022-08-23T10:13:37.270Z,74.34
2022-08-23T10:16:42.380Z,74.29
2022-08-23T10:19:18.445Z,73.59
2022-08-23T10:22:08.700Z,74.03
2022-08-23T10:24:46.136Z,74.23
2022-08-23T10:27:37.613Z,74.41
2022-08-23T10:30:12.971Z,73.93
2022-08-23T10:33:08.574Z,74.45
2022-08-23T10:35:50.351Z,74.27
2022-08-23T10:38:36.233Z,73.48
2022-08-23T10:41:33.955Z,73.18
2022-08-23T10:44:35.387Z,73.65
2022-08-23T10:47:30.891Z,72.78
2022-08-23T10:50:03.447Z,73.03
2022-08-23T10:52:33.822Z,72.59
2022-08-23T10:55:17.241Z,72.43
2022-08-23T10:57:49.222Z,72.40
2022-08-23T11:00:21.760Z,72.46
2022-08-23T11:02:50.006Z,73.12
2022-08-23T11:05:28.126Z,72.90
2022-08-23T11:08:01.242Z,72.93
2022-08-23T11:10:35.273Z,72.06
2022-08-23T11:13:21.632Z,71.43
2022-08-23T11:16:01.006Z,71.29
2022-08-23T11:18:42.601Z,71.07
2022-08-23T11:21:33.610Z,70.89
2022-08-23T11:24:00.343Z,70.53
2022-08-23T11:26:27.171Z,71.50
2022-08-23T11:28:56.725Z,71.27
2022-08-23T11:31:26.336Z,71.58
2022-08-23T11:34:01.697Z,71.32
2022-08-23T11:36:45.136Z,70.91
2022-08-23T11:39:15.787Z,71.39
2022-08-23T11:41:56.237Z,71.94
2022-08-23T11:44:28.249Z,72.00
2022-08-23T11:46:55.647Z,71.75
2022-08-23T11:49:28.610Z,72.45
2022-08-23T11:52:31.987Z,71.94
2022-08-23T11:55:24.282Z,71.81
2022-08-23T11:58:25.083Z,71.78
2022-08-23T12:01:07.861Z,72.65
2022-08-23T12:03:54.605Z,71.93
2022-08-23T12:06:51.099Z,71.71
2022-08-23T12:09:21.338Z,72.08
2022-08-23T12:11:57.130Z,72.01
2022-08-23T12:14:33.105Z,72.78
2022-08-23T12:17:03.647Z,72.46
2022-08-23T12:19:40.454Z,72.49
2022-08-23T12:22:16.992Z,72.15
2022-08-23T12:25:00.808Z,72.40
2022-08-23T12:27:48.802Z,72.99
2022-08-23T12:30:26.220Z,72.48
2022-08-23T12:33:21.390Z,72.75
2022-08-23T12:36:16.314Z,73.12
2022-08-23T12:39:09.494Z,73.79
2022-08-23T12:41:54.208Z,73.22
2022-08-23T12:44:24.036Z,73.28
2022-08-23T12:46:51.715Z,73.60
2022-08-23T12:49:30.216Z,73.41
2022-08-23T12:52:01.391Z,74.36
2022-08-23T12:54:46.684Z,74.52
2022-08-23T12:57:26.108Z,74.29
2022-08-23T13:00:17.224Z,74.80
2022-08-23T13:02:56.663Z,76.67
2022-08-23T13:05:32.363Z,76.16
2022-08-23T13:08:02.533Z,76.20
2022-08-23T13:10:29.867Z,76.47
2022-08-23T13:12:57.094Z,75.95
2022-08-23T13:15:47.689Z,76.43
2022-08-23T13:18:32.746Z,76.86
2022-08-23T13:21:18.700Z,76.20
2022-08-23T13:23:47.874Z,76.24
2022-08-23T13:26:49.074Z,76.47
2022-08-23T13:29:16.080Z,76.42
2022-08-23T13:31:53.629Z,76.39
2022-08-23T13:34:48.910Z,76.27
2022-08-23T13:37:19.292Z,76.23
2022-08-23T13:39:58.757Z,76.35
2022-08-23T13:42:38.482Z,76.84
2022-08-23T13:45:31.008Z,76.57
2022-08-23T13:48:02.758Z,76.14
2022-08-23T13:50:34.639Z,76.22
2022-08-23T13:53:17.454Z,76.09
2022-08-23T13:55:51.904Z,76.22
2022-08-23T13:58:34.099Z,75.91
2022-08-23T14:01:03.453Z,76.28
2022-08-23T14:03:31.740Z,76.78
2022-08-23T14:05:58.536Z,76.29
2022-08-23T14:08:25.378Z,77.23
2022-08-23T14:10:52.543Z,77.43
2022-08-23T14:13:29.421Z,76.82
2022-08-23T14:21:38.049Z,76.76
2022-08-23T14:24:05.352Z,76.98
2022-08-23T14:26:50.257Z,76.25
2022-08-23T14:29:23.322Z,76.87
2022-08-23T14:31:52.146Z,76.47
2022-08-23T14:34:19.720Z,77.01
2022-08-23T14:39:36.390Z,77.26
2022-08-23T14:42:04.626Z,77.43
2022-08-23T14:44:35.908Z,77.15
2022-08-23T14:47:04.537Z,76.99
2022-08-23T14:49:31.382Z,76.98
2022-08-23T14:51:58.307Z,77.02
2022-08-23T14:54:26.377Z,76.38
2022-08-23T14:56:54.056Z,76.13
2022-08-23T14:59:21.434Z,75.39
2022-08-23T15:01:50.885Z,74.92
2022-08-23T15:04:20.461Z,75.26
2022-08-23T15:07:16.122Z,75.26
2022-08-23T15:09:36.821Z,75.63
2022-08-23T15:14:50.725Z,76.44
2022-08-23T15:17:17.808Z,75.88
2022-08-23T15:19:44.694Z,75.90
2022-08-23T15:22:18.350Z,76.17
2022-08-23T15:24:48.420Z,76.42
2022-08-23T15:27:15.206Z,76.20
2022-08-23T15:29:42.059Z,75.79
2022-08-23T15:32:10.163Z,75.44
2022-08-23T15:34:40.127Z,75.12
2022-08-23T15:37:13.651Z,76.04
2022-08-23T15:39:42.023Z,75.66
2022-08-23T15:42:08.887Z,76.13
2022-08-23T15:44:35.718Z,75.77
2022-08-23T15:47:05.203Z,75.76
2022-08-23T15:49:36.549Z,75.76
2022-08-23T15:52:04.930Z,75.40
2022-08-23T15:54:32.005Z,74.94
2022-08-23T15:56:59.254Z,74.81
2022-08-23T15:59:26.173Z,75.33
2022-08-23T16:01:53.494Z,75.11
2022-08-23T16:04:20.343Z,74.58
2022-08-23T16:06:48.179Z,74.32
2022-08-23T16:09:21.152Z,74.53
2022-08-23T16:11:48.522Z,74.35
2022-08-23T16:14:15.646Z,74.04
2022-08-23T16:16:43.872Z,73.87
2022-08-23T16:19:11.076Z,74.25
2022-08-23T16:21:38.231Z,74.20
2022-08-23T16:24:06.986Z,73.79
2022-08-23T16:26:43.394Z,73.43
2022-08-23T16:29:14.658Z,73.69
2022-08-23T16:31:41.981Z,73.05
2022-08-23T16:34:12.763Z,72.85
2022-08-23T16:36:42.136Z,73.27
2022-08-23T16:39:10.985Z,72.57
2022-08-23T16:41:37.991Z,72.53
2022-08-23T16:44:05.311Z,72.04
2022-08-23T16:46:44.244Z,72.20
2022-08-23T16:49:12.861Z,71.94
2022-08-23T16:51:39.931Z,72.16
2022-08-23T16:54:08.494Z,71.71
2022-08-23T16:56:41.413Z,70.78
2022-08-23T16:59:10.801Z,70.68
2022-08-23T17:01:56.665Z,70.99
2022-08-23T17:04:26.949Z,69.84
2022-08-23T17:06:58.434Z,69.98
2022-08-23T17:09:27.297Z,70.08
2022-08-23T17:11:55.173Z,70.20
2022-08-23T17:14:24.261Z,70.92
2022-08-23T17:16:51.378Z,71.67
2022-08-23T17:19:18.254Z,71.92
2022-08-23T17:21:45.328Z,71.67
2022-08-23T17:24:12.233Z,72.25
2022-08-23T17:26:42.887Z,72.36
2022-08-23T17:29:09.917Z,72.73
2022-08-23T17:31:37.982Z,72.59
2022-08-23T17:34:06.710Z,72.90
2022-08-23T17:36:47.881Z,72.94
2022-08-23T17:39:17.824Z,72.64
2022-08-23T17:41:45.647Z,73.06
2022-08-23T17:44:13.731Z,73.25
2022-08-23T17:46:43.796Z,73.19
2022-08-23T17:49:11.861Z,73.70
2022-08-23T17:51:41.249Z,74.20
2022-08-23T17:54:10.267Z,73.74
2022-08-23T17:56:40.474Z,74.49
2022-08-23T17:59:09.043Z,74.59
2022-08-23T18:01:37.273Z,75.10
2022-08-23T18:04:07.939Z,74.79
2022-08-23T18:06:39.902Z,75.05
2022-08-23T18:09:07.771Z,74.66
2022-08-23T18:11:35.892Z,74.61
2022-08-23T18:14:03.486Z,74.63
2022-08-23T18:16:39.704Z,74.26
2022-08-23T18:19:11.239Z,74.80
2022-08-23T18:21:41.352Z,74.93
2022-08-23T18:24:09.502Z,74.89
2022-08-23T18:26:58.270Z,75.53
2022-08-23T18:29:25.470Z,75.32
2022-08-23T18:31:52.367Z,74.88
2022-08-23T18:34:19.365Z,75.21
2022-08-23T18:36:46.477Z,75.17
2022-08-23T18:39:15.567Z,76.00
2022-08-23T18:41:42.975Z,75.22
2022-08-23T18:44:10.457Z,75.03
2022-08-23T18:46:40.714Z,75.68
2022-08-23T18:49:08.508Z,75.55
2022-08-23T18:51:35.995Z,76.47
2022-08-23T18:54:04.477Z,76.11
2022-08-23T18:56:40.409Z,76.50
2022-08-23T18:59:07.517Z,76.78
2022-08-23T19:01:37.359Z,76.43
2022-08-23T19:04:06.552Z,77.03
2022-08-23T19:06:44.143Z,77.42
2022-08-23T19:09:12.953Z,77.16
2022-08-23T19:11:41.743Z,77.79
2022-08-23T19:14:11.055Z,77.87
2022-08-23T19:16:48.880Z,77.36
2022-08-23T19:19:16.937Z,77.76
2022-08-23T19:21:44.255Z,78.97
2022-08-23T19:24:11.645Z,78.74
2022-08-23T19:26:48.046Z,78.38
2022-08-23T19:29:16.480Z,78.36
2022-08-23T19:31:47.097Z,78.47
2022-08-23T19:34:19.783Z,78.93
2022-08-23T19:36:56.695Z,79.28
2022-08-23T19:39:27.713Z,79.79
2022-08-23T19:41:54.659Z,79.88
2022-08-23T19:44:22.234Z,79.78
2022-08-23T19:46:49.688Z,79.80
2022-08-23T19:49:16.820Z,80.14
2022-08-23T19:51:45.063Z,80.37
2022-08-23T19:54:13.488Z,79.92
2022-08-23T19:56:50.535Z,80.06
2022-08-23T19:59:24.088Z,80.21
2022-08-23T20:01:53.527Z,80.25
2022-08-23T20:04:22.810Z,80.31
2022-08-23T20:06:50.866Z,80.77
2022-08-23T20:09:20.469Z,81.07
2022-08-23T20:11:47.698Z,81.88
2022-08-23T20:14:15.460Z,81.05
2022-08-23T20:16:46.159Z,81.55
2022-08-23T20:19:13.862Z,81.61
2022-08-23T20:21:42.866Z,82.21
2022-08-23T20:24:13.718Z,82.04
2022-08-23T20:26:48.327Z,81.96
2022-08-23T20:29:19.280Z,81.72
2022-08-23T20:31:53.686Z,82.47
2022-08-23T20:34:21.911Z,82.91
2022-08-23T20:36:53.354Z,82.27
2022-08-23T20:39:23.830Z,82.58
2022-08-23T20:41:52.362Z,82.46
2022-08-23T20:44:21.623Z,82.71
2022-08-23T20:46:54.151Z,83.29
2022-08-23T20:49:23.578Z,82.39
2022-08-23T20:51:51.931Z,83.13
2022-08-23T20:54:19.704Z,83.05
2022-08-23T20:56:50.828Z,82.45
2022-08-23T20:59:18.474Z,83.29
2022-08-23T21:01:45.918Z,82.67
2022-08-23T21:04:13.477Z,82.67
2022-08-23T21:06:47.851Z,82.16
2022-08-23T21:09:19.654Z,81.88
2022-08-23T21:11:48.532Z,82.40
2022-08-23T21:14:18.974Z,82.73
2022-08-23T21:16:48.227Z,82.25
2022-08-23T21:19:16.416Z,82.18
2022-08-23T21:21:43.966Z,82.05
2022-08-23T21:24:11.955Z,82.07
2022-08-23T21:26:39.656Z,81.79
2022-08-23T21:29:09.033Z,82.03
2022-08-23T21:31:36.522Z,82.25
2022-08-23T21:34:04.203Z,82.12
2022-08-23T21:36:39.650Z,82.39
2022-08-23T21:39:06.556Z,82.50
2022-08-23T21:41:37.292Z,82.57
2022-08-23T21:44:06.992Z,81.87
2022-08-23T21:46:41.272Z,81.95
2022-08-23T21:49:08.721Z,82.10
2022-08-23T21:51:39.356Z,82.02
2022-08-23T21:54:09.121Z,82.62
2022-08-23T21:56:42.324Z,82.18
2022-08-23T21:59:12.829Z,82.21
2022-08-23T22:01:41.796Z,82.24
2022-08-23T22:04:13.084Z,81.90
2022-08-23T22:06:45.181Z,82.83
2022-08-23T22:09:15.461Z,82.75
2022-08-23T22:11:44.504Z,82.91
2022-08-23T22:14:17.748Z,83.08
2022-08-23T22:16:44.755Z,83.29
2022-08-23T22:19:13.655Z,83.18
2022-08-23T22:21:40.694Z,83.44
2022-08-23T22:24:08.289Z,84.12
2022-08-23T22:26:41.831Z,83.49
2022-08-23T22:29:09.517Z,83.23
2022-08-23T22:31:37.347Z,83.65
2022-08-23T22:34:05.644Z,83.65
2022-08-23T22:36:42.177Z,83.55
2022-08-23T22:39:09.394Z,83.95
2022-08-23T22:41:37.131Z,84.16
2022-08-23T22:44:05.548Z,83.89
2022-08-23T22:46:43.593Z,84.23
2022-08-23T22:49:10.912Z,83.65
2022-08-23T22:51:38.734Z,83.64
2022-08-23T22:54:09.664Z,84.44
2022-08-23T22:56:49.094Z,84.61
2022-08-23T22:59:18.468Z,84.28
2022-08-23T23:01:51.197Z,84.54
2022-08-23T23:04:22.029Z,84.50
2022-08-23T23:06:51.760Z,84.45
2022-08-23T23:09:19.139Z,84.25
2022-08-23T23:11:47.081Z,84.65
2022-08-23T23:14:16.259Z,84.40
2022-08-23T23:16:46.628Z,84.54
2022-08-23T23:19:42.808Z,84.53
2022-08-23T23:22:13.241Z,85.26
2022-08-23T23:24:41.034Z,84.79
2022-08-23T23:27:08.585Z,85.03
2022-08-23T23:29:36.961Z,85.15
2022-08-23T23:32:04.797Z,84.81
2022-08-23T23:34:36.822Z,85.13
2022-08-23T23:37:04.274Z,85.09
2022-08-23T23:39:31.525Z,85.90
2022-08-23T23:41:58.909Z,85.18
2022-08-23T23:44:31.509Z,85.62
2022-08-23T23:47:01.812Z,85.24
2022-08-23T23:49:31.989Z,85.62
2022-08-23T23:52:01.682Z,85.44
2022-08-23T23:54:28.897Z,85.67
2022-08-23T23:56:56.204Z,85.54
2022-08-23T23:59:23.538Z,85.33
